Charter Quote
Worldwide +1-877-727-2538 Call
Select Language Lang
SAFETY RELIABILITY EXPERIENCE

Private Jet Charter Services - Beihai Airport (ZGBH)

Paramount Business Jets offers private jet charter flights and luxury airliner charters to and from Beihai Airport.

AIRPORT INFORMATION
ICAOZGBH
IATABHY
LOCATIONBeihai, China
FACILITY TYPEAIRPORT

At Paramount Business Jets you can hire chartered private jets to and from Beihai Airport with as little as 4 hours of notice. All flights booked via Paramount Business Jets are operated by certified direct air carriers that meet and exceed the FAA part 135 and 121 protocol or a foreign equivalent safety authority. Furthermore, Paramount Business Jets subscribes to ARGUS for their third party safety checks of operators, aircraft, and crews prior each and every flight to and from Beihai Airport and worldwide.

  • Quote a trip using Beihai Airport or call us 24/7 - 365 days a year at +1-877-727-2538.
Questions? Call +1-877-727-2538

METAR Weather Data at Beihai Airport, ZGBH, BHY

STATIONZGBH
OBSERVEDSun Apr 1, 08:00 UTC
NOWMon Jul 22, 09:36 UTC
AGE11449:36 hr ago
WINDW at 7 mph
VISIBILITYgreater than 7 miles
CLOUDSclear skies
TEMP82°F (28°C)
DEWPT61°F (16°C)
HUMIDITY48%
HEAT INDEX82°F (28°C)
BAROMETER1013 hPa (29.91 in Hg)
METARZGBH 010800Z 26003MPS CAVOK 28/16 Q1013 NOSIG

Call us on +1-877-727-2538 (24 Hours) to Hire a Private Jet or Get a Quick Quote.

Find Airports Near any Location

Processing
...